Latest Weather Observations for Pound Creek

IDV60801

Issued at 9:02 pm EDT Wednesday 18 January 2017 (issued every 30 minutes, with the page automatically refreshed every 10 minutes)

About weather observations | Map of weather stations | Latest weather observations for VIC | Other Formats
Station Details ID: 085099 Name: POUND CREEK Lat: -38.63 Lon: 145.81 Height: 3.0 m
Data from the previous 72 hours. | See also: Recent months at Pound Creek
Date/Time
EDT
Temp
°C
App
Temp
°C
Dew
Point
°C
Rel
Hum
%
Delta-T
°C
Wind Press
QNH
hPa
Press
MSL
hPa
Rain since
9am
mm
Dir  Spd
km/h
Gust
km/h
Spd
kts
Gust
kts
18/09:00pm 14.6 10.9 8.1 65 3.2 SSW 17 19 9 10 - 1017.1 0.0
18/08:30pm 15.0 11.3 7.8 62 3.6 SSW 17 24 9 13 1017.0 1017.0 0.0
18/08:00pm 15.6 11.3 7.1 57 4.2 SSW 19 26 10 14 1016.8 1016.8 0.0
18/07:30pm 16.2 12.2 8.2 59 4.0 SW 19 28 10 15 1016.7 1016.7 0.0
18/07:00pm 16.8 12.7 8.5 58 4.2 SW 20 32 11 17 1016.5 1016.5 0.0
18/06:30pm 17.3 13.1 8.2 55 4.6 SW 20 32 11 17 1016.2 1016.2 0.0
18/06:00pm 17.8 12.9 8.6 55 4.7 SW 24 32 13 17 1016.2 1016.2 0.0
18/05:30pm 18.5 13.5 7.9 50 5.4 SSW 24 32 13 17 1016.3 1016.3 0.0
18/05:00pm 18.6 14.0 8.0 50 5.4 SSW 22 32 12 17 1016.2 1016.2 0.0
18/04:30pm 18.5 13.2 7.0 47 5.8 SW 24 32 13 17 1016.1 1016.1 0.0
18/04:00pm 19.2 14.3 8.5 50 5.5 SSW 24 37 13 20 1016.1 1016.1 0.0
18/03:30pm 19.6 13.8 8.0 47 6.0 SSW 28 37 15 20 1016.2 1016.2 0.0
18/03:00pm 19.8 14.1 6.9 43 6.5 SW 26 35 14 19 1016.1 1016.1 0.0
18/02:30pm 19.4 13.5 7.5 46 6.1 SW 28 39 15 21 1016.1 1016.1 0.0
18/02:00pm 19.9 14.5 9.5 51 5.5 SW 28 37 15 20 1015.9 1015.9 0.0
18/01:30pm 19.7 14.0 8.4 48 5.9 SSW 28 37 15 20 1015.8 1015.8 0.0
18/01:00pm 19.9 14.4 9.2 50 5.6 SSW 28 43 15 23 1015.5 1015.5 0.0
18/12:30pm 19.9 14.7 8.9 49 5.8 SW 26 35 14 19 1015.1 1015.1 0.0
18/12:00pm 19.1 13.3 8.1 49 5.7 SW 28 41 15 22 1014.9 1014.9 0.0
18/11:30am 19.1 13.9 10.1 56 4.8 SW 28 41 15 22 1014.5 1014.5 0.0
18/11:00am 18.3 12.3 8.8 54 4.9 SW 30 41 16 22 1014.1 1014.1 0.0
18/10:30am 18.9 14.2 10.5 58 4.5 SW 26 33 14 18 1013.7 1013.7 0.0
18/10:00am 18.6 13.8 10.2 58 4.5 SW 26 37 14 20 1013.3 1013.3 0.0
18/09:30am 18.6 13.4 10.2 58 4.5 SW 28 39 15 21 1013.1 1013.1 0.0
18/09:00am 18.3 13.5 10.2 59 4.3 SW 26 37 14 20 1013.0 1013.0 0.0
18/08:30am 17.4 11.3 9.8 61 4.0 SW 32 41 17 22 1012.7 1012.7 0.0
18/08:00am 17.0 11.7 9.9 63 3.7 SW 28 37 15 20 1012.3 1012.3 0.0
18/07:30am 16.4 11.7 10.7 69 3.0 SW 26 35 14 19 1011.5 1011.5 0.0
18/07:00am 16.4 11.9 11.3 72 2.7 SW 26 41 14 22 1011.0 1011.0 0.0
18/06:30am 16.2 11.1 10.5 69 3.0 SSW 28 39 15 21 1010.1 1010.1 0.0
18/06:00am 16.3 11.3 11.0 71 2.8 SW 28 39 15 21 1009.6 1009.6 0.0
18/05:30am 16.1 12.8 13.9 87 1.2 WSW 24 35 13 19 1009.3 1009.3 0.0
18/05:00am 16.5 13.8 13.6 83 1.6 WSW 20 30 11 16 1008.3 1008.3 0.0
18/04:30am 16.1 13.4 13.4 84 1.5 SW 20 32 11 17 1008.3 1008.3 0.0
18/04:00am 16.6 13.5 14.4 87 1.3 WSW 24 33 13 18 1008.8 1008.8 0.0
18/03:30am 17.6 14.8 14.3 81 1.9 WSW 22 33 12 18 1008.5 1008.5 0.0
18/03:00am 18.9 16.9 15.4 80 2.1 W 20 30 11 16 1009.1 1009.1 0.0
18/02:30am 19.2 16.8 15.3 78 2.3 WSW 22 30 12 16 1009.3 1009.3 0.0
18/02:00am 19.4 17.4 14.9 75 2.6 WSW 19 32 10 17 1008.9 1008.9 0.0
18/01:30am 19.7 18.4 14.9 74 2.8 W 15 26 8 14 1008.9 1008.9 0.0
18/01:00am 19.1 18.9 14.8 76 2.5 WNW 9 15 5 8 1009.2 1009.2 0.0
18/12:30am 19.0 18.7 14.3 74 2.7 NNW 9 11 5 6 1009.0 1009.0 0.0
18/12:00am 19.2 19.1 14.0 72 3.0 NNW 7 9 4 5 1009.2 1009.2 0.0
 
Date/Time
EDT
Temp
°C
App
Temp
°C
Dew
Point
°C
Rel
Hum
%
Delta-T
°C
Wind Press
QNH
hPa
Press
MSL
hPa
Rain since
9am
mm
Dir  Spd
km/h
Gust
km/h
Spd
kts
Gust
kts
17/11:30pm 19.8 20.2 13.7 68 3.5 NW 4 6 2 3 1009.5 1009.5 0.0
17/11:00pm 20.1 20.1 14.2 69 3.4 W 7 11 4 6 1009.9 1009.9 0.0
17/10:30pm 20.8 20.6 14.7 68 3.6 WSW 9 13 5 7 1009.1 1009.1 0.0
17/10:00pm 21.4 20.1 13.8 62 4.4 WSW 13 20 7 11 1009.0 1009.0 0.0
17/09:30pm 20.9 20.8 13.8 64 4.1 WSW 7 11 4 6 1008.0 1008.0 0.0
17/09:00pm 21.6 21.4 14.7 65 4.1 WSW 9 11 5 6 1007.1 1007.1 0.0
17/08:30pm 22.4 22.1 13.2 56 5.3 WSW 7 7 4 4 1006.6 1006.6 0.0
17/08:00pm 23.6 24.8 14.9 58 5.2 SSE 2 4 1 2 1005.7 1005.7 0.0
17/07:30pm 24.1 23.8 12.7 49 6.6 S 6 9 3 5 1005.3 1005.3 0.0
17/07:00pm 24.7 23.8 12.6 47 7.0 S 9 13 5 7 1005.2 1005.2 0.0
17/06:30pm 25.4 22.4 11.9 43 7.7 S 19 26 10 14 1005.3 1005.3 0.0
17/06:00pm 29.2 27.5 8.3 27 11.5 S 7 9 4 5 1005.1 1005.1 0.0
17/05:30pm 28.4 27.7 8.7 29 10.8 WSW 2 6 1 3 1005.5 1005.5 0.0
17/05:00pm 29.0 27.1 9.2 29 11.0 WSW 9 13 5 7 1006.2 1006.2 0.0
17/04:30pm 30.3 26.8 8.7 26 12.0 SW 17 22 9 12 1006.3 1006.3 0.0
17/04:00pm 30.0 26.8 10.0 29 11.3 WSW 17 22 9 12 1006.5 1006.5 0.0
17/03:30pm 33.4 30.8 10.7 25 13.2 WSW 15 22 8 12 1006.1 1006.1 0.0
17/03:00pm 31.9 28.3 10.6 27 12.3 WSW 20 26 11 14 1006.6 1006.6 0.0
17/02:30pm 31.9 27.8 10.0 26 12.5 SW 22 30 12 16 1006.9 1006.9 0.0
17/02:00pm 33.5 28.7 7.5 20 14.4 WSW 22 33 12 18 1007.0 1007.0 0.0
17/01:30pm 33.6 28.3 6.8 19 14.6 W 24 32 13 17 1007.4 1007.4 0.0
17/01:00pm 32.5 27.2 6.7 20 14.0 WNW 24 37 13 20 1007.7 1007.7 0.0
17/12:30pm 32.9 28.8 7.7 21 13.9 WNW 19 30 10 16 1007.6 1007.6 0.0
17/12:00pm 32.2 27.9 7.1 21 13.7 WNW 19 30 10 16 1007.6 1007.6 0.0
17/11:30am 31.9 28.0 6.9 21 13.6 WNW 17 24 9 13 1007.4 1007.4 0.0
17/11:00am 31.5 28.2 7.9 23 13.0 NW 15 24 8 13 1007.7 1007.7 0.0
17/10:30am 29.6 27.0 9.2 28 11.4 WNW 13 20 7 11 1007.8 1007.8 0.0
17/10:00am 28.6 28.3 11.6 34 9.8 NW 4 13 2 7 1008.0 1008.0 0.0
17/09:30am 25.9 27.0 15.6 53 6.3 NNW 4 4 2 2 1008.4 1008.4 0.0
17/09:00am 23.6 25.6 16.1 62 4.6 CALM 0 0 0 0 1008.7 1008.7 0.0
17/08:30am 22.2 24.3 16.2 69 3.6 CALM 0 6 0 3 1008.8 1008.8 0.0
17/08:00am 18.8 20.8 15.9 83 1.7 CALM 0 0 0 0 1008.9 1008.9 0.0
17/07:30am 16.8 17.4 14.3 85 1.4 WSW 4 6 2 3 1008.5 1008.5 0.0
17/07:00am 15.3 15.0 13.2 87 1.2 N 7 9 4 5 1008.2 1008.2 0.0
17/06:30am 14.7 14.9 12.9 89 1.0 NNW 4 6 2 3 1008.0 1008.0 0.0
17/06:00am 14.8 15.0 13.2 90 0.9 NNE 4 6 2 3 1007.9 1007.9 0.0
17/05:30am 14.6 15.1 12.8 89 1.0 NNE 2 4 1 2 1007.6 1007.6 0.0
17/05:00am 14.1 14.3 11.8 86 1.2 NNE 2 4 1 2 1007.2 1007.2 0.0
17/04:30am 15.7 15.9 13.2 85 1.4 NNE 4 4 2 2 1007.0 1007.0 0.0
17/04:00am 16.2 17.2 13.1 82 1.7 CALM 0 0 0 0 1006.8 1006.8 0.0
17/03:30am 17.0 17.6 13.1 78 2.2 NNE 2 6 1 3 1007.0 1007.0 0.0
17/03:00am 16.6 16.6 13.5 82 1.7 ENE 6 7 3 4 1007.3 1007.3 0.0
17/02:30am 17.4 17.5 12.7 74 2.6 S 4 4 2 2 1007.8 1007.8 0.0
17/02:00am 18.6 18.3 12.8 69 3.3 NE 6 13 3 7 1007.8 1007.8 0.0
17/01:30am 18.3 18.1 13.6 74 2.7 ENE 7 11 4 6 1008.3 1008.3 0.0
17/01:00am 17.6 17.8 14.3 81 1.9 ENE 6 7 3 4 1008.9 1008.9 0.0
17/12:30am 17.6 18.0 13.7 78 2.2 S 4 6 2 3 1009.5 1009.5 0.0
17/12:00am 20.0 19.6 14.1 69 3.4 NE 9 15 5 8 1009.3 1009.3 0.0
 
Date/Time
EDT
Temp
°C
App
Temp
°C
Dew
Point
°C
Rel
Hum
%
Delta-T
°C
Wind Press
QNH
hPa
Press
MSL
hPa
Rain since
9am
mm
Dir  Spd
km/h
Gust
km/h
Spd
kts
Gust
kts
16/11:30pm 17.1 18.4 14.0 82 1.8 CALM 0 6 0 3 1009.7 1009.7 0.0
16/11:00pm 17.3 17.6 14.4 83 1.7 E 6 7 3 4 1010.5 1010.5 0.0
16/10:30pm 17.3 17.7 13.8 80 2.0 E 4 6 2 3 1010.7 1010.7 0.0
16/10:00pm 17.0 16.8 12.9 77 2.3 S 6 7 3 4 1010.7 1010.7 0.0
16/09:30pm 17.6 18.1 12.7 73 2.7 E 2 4 1 2 1010.7 1010.7 0.0
16/09:00pm 20.1 20.7 14.2 69 3.4 ENE 4 6 2 3 1010.4 1010.4 0.0
16/08:30pm 21.3 21.1 13.5 61 4.5 ESE 7 9 4 5 1010.5 1010.5 0.0
16/08:00pm 23.7 23.0 11.4 46 6.9 SE 6 7 3 4 1010.5 1010.5 0.0
16/07:30pm 24.8 24.2 11.7 44 7.4 S 6 7 3 4 1010.8 1010.8 0.0
16/07:00pm 24.6 24.1 12.2 46 7.1 S 6 7 3 4 1010.9 1010.9 0.0
16/06:30pm 25.0 24.4 12.2 44 7.3 SSW 7 9 4 5 1010.7 1010.7 0.0
16/06:00pm 25.3 24.0 12.5 45 7.4 SSW 11 13 6 7 1011.0 1011.0 0.0
16/05:30pm 25.0 24.4 12.2 44 7.3 SSW 7 9 4 5 1011.2 1011.2 0.0
16/05:00pm 24.3 23.5 12.9 49 6.6 S 9 15 5 8 1011.6 1011.6 0.0
16/04:30pm 24.4 23.6 13.0 49 6.6 S 9 15 5 8 1011.9 1011.9 0.0
16/04:00pm 23.3 21.8 13.2 53 5.8 S 13 17 7 9 1012.6 1012.6 0.0
16/03:30pm 22.8 21.3 13.0 54 5.6 SSW 13 17 7 9 1013.0 1013.0 0.0
16/03:00pm 22.9 21.9 13.4 55 5.5 SSW 11 17 6 9 1013.3 1013.3 0.0
16/02:30pm 22.0 20.3 12.5 54 5.4 SSW 13 20 7 11 1013.6 1013.6 0.0
16/02:00pm 21.1 19.5 11.7 55 5.2 SW 11 20 6 11 1014.0 1014.0 0.0
16/01:30pm 21.3 18.8 12.4 57 5.0 SSW 17 20 9 11 1014.4 1014.4 0.0
16/01:00pm 21.2 18.3 12.3 57 5.0 SSW 19 24 10 13 1014.6 1014.6 0.0
16/12:30pm 22.3 20.6 12.5 53 5.6 SSW 13 20 7 11 1014.4 1014.4 0.0
16/12:00pm 21.1 20.2 12.5 58 4.9 SSW 9 13 5 7 1014.5 1014.5 0.0
16/11:30am 20.5 18.9 11.7 57 4.9 SW 11 20 6 11 1015.0 1015.0 0.0
16/11:00am 19.7 17.2 11.2 58 4.6 SSW 15 19 8 10 1015.5 1015.5 0.0
16/10:30am 20.4 19.5 11.3 56 5.0 SSW 7 15 4 8 1015.7 1015.7 0.0
16/10:00am 19.2 18.3 10.7 58 4.6 SW 6 11 3 6 1015.8 1015.8 0.0
16/09:30am 18.0 16.9 9.9 59 4.3 W 6 11 3 6 1016.0 1016.0 0.0
16/09:00am 17.9 16.8 10.8 63 3.8 WSW 7 11 4 6 1016.1 1016.1 0.0
16/08:30am 17.2 16.4 11.2 68 3.2 N 6 9 3 5 1016.3 1016.3 0.0
16/08:00am 15.2 14.1 10.8 75 2.3 N 7 9 4 5 1016.2 1016.2 0.0
16/07:30am 13.4 12.2 10.2 81 1.7 N 7 11 4 6 1016.1 1016.1 0.0
16/07:00am 12.5 11.1 9.5 82 1.5 N 7 11 4 6 1015.9 1015.9 0.0
16/06:30am 12.5 11.3 9.5 82 1.5 N 6 9 3 5 1015.7 1015.7 0.0
16/06:00am 12.6 11.8 9.6 82 1.5 NNE 4 6 2 3 1015.7 1015.7 0.0
16/05:30am 12.4 11.0 9.4 82 1.5 N 7 11 4 6 1015.6 1015.6 0.0
16/05:00am 12.7 11.5 9.7 82 1.5 NNE 6 9 3 5 1015.4 1015.4 0.0
16/04:30am 12.6 10.8 9.6 82 1.5 N 9 15 5 8 1015.3 1015.3 0.0
16/04:00am 12.9 11.2 9.9 82 1.5 N 9 11 5 6 1015.1 1015.1 0.0
16/03:30am 13.1 11.5 10.3 83 1.4 N 9 11 5 6 1015.1 1015.1 0.0
16/03:00am 13.7 12.6 10.5 81 1.7 N 7 11 4 6 1015.4 1015.4 0.0
16/02:30am 13.8 12.9 10.6 81 1.7 N 6 7 3 4 1015.8 1015.8 0.0
16/02:00am 13.8 12.7 10.6 81 1.7 N 7 9 4 5 1016.2 1016.2 0.0
16/01:30am 13.7 12.8 10.7 82 1.6 N 6 7 3 4 1016.5 1016.5 0.0
16/01:00am 13.9 13.0 10.5 80 1.8 NNW 6 6 3 3 1016.8 1016.8 0.0
16/12:30am 13.6 12.4 10.4 81 1.7 NNW 7 7 4 4 1017.2 1017.2 0.0
16/12:00am 13.3 12.0 9.9 80 1.7 NNW 7 9 4 5 1017.3 1017.3 0.0
 
Date/Time
EDT
Temp
°C
App
Temp
°C
Dew
Point
°C
Rel
Hum
%
Delta-T
°C
Wind Press
QNH
hPa
Press
MSL
hPa
Rain since
9am
mm
Dir  Spd
km/h
Gust
km/h
Spd
kts
Gust
kts
15/11:30pm 13.0 11.9 9.8 81 1.6 NW 6 7 3 4 1017.4 1017.4 0.0
15/11:00pm 13.1 11.8 9.9 81 1.6 NNW 7 7 4 4 1017.4 1017.4 0.0
15/10:30pm 12.4 11.0 9.4 82 1.5 NNW 7 9 4 5 1017.6 1017.6 0.0
15/10:00pm 12.5 11.2 9.3 81 1.6 WNW 6 9 3 5 1017.8 1017.8 0.0
15/09:30pm 13.5 12.1 9.7 78 1.9 WNW 7 9 4 5 1017.8 1017.8 0.0

Other Formats:

Comma delimited format used in spreadsheet applications
http://www.bom.gov.au/fwo/IDV60801/IDV60801.94886.axf

JavaScript Object Notation format (JSON) in row-major order
http://www.bom.gov.au/fwo/IDV60801/IDV60801.94886.json